sensor_id;sensor_type;location;lat;lon;timestamp;temperature;humidity
7600;DHT22;3841;49.442;11.126;2022-08-03T00:00:12;17.60;99.90
7600;DHT22;3841;49.442;11.126;2022-08-03T00:02:40;17.60;99.90
7600;DHT22;3841;49.442;11.126;2022-08-03T00:05:08;17.60;99.90
7600;DHT22;3841;49.442;11.126;2022-08-03T00:07:35;17.60;99.90
7600;DHT22;3841;49.442;11.126;2022-08-03T00:10:03;17.60;99.90
7600;DHT22;3841;49.442;11.126;2022-08-03T00:12:30;17.60;99.90
7600;DHT22;3841;49.442;11.126;2022-08-03T00:14:56;17.50;99.90
7600;DHT22;3841;49.442;11.126;2022-08-03T00:17:23;17.40;99.90
7600;DHT22;3841;49.442;11.126;2022-08-03T00:19:49;17.40;99.90
7600;DHT22;3841;49.442;11.126;2022-08-03T00:22:17;17.40;99.90
7600;DHT22;3841;49.442;11.126;2022-08-03T00:24:44;17.40;99.90
7600;DHT22;3841;49.442;11.126;2022-08-03T00:27:11;17.30;99.90
7600;DHT22;3841;49.442;11.126;2022-08-03T00:29:37;17.30;99.90
7600;DHT22;3841;49.442;11.126;2022-08-03T00:32:04;17.30;99.90
7600;DHT22;3841;49.442;11.126;2022-08-03T00:34:31;17.30;99.90
7600;DHT22;3841;49.442;11.126;2022-08-03T00:36:57;17.20;99.90
7600;DHT22;3841;49.442;11.126;2022-08-03T00:39:25;17.10;99.90
7600;DHT22;3841;49.442;11.126;2022-08-03T00:41:52;17.00;99.90
7600;DHT22;3841;49.442;11.126;2022-08-03T00:44:18;16.90;99.90
7600;DHT22;3841;49.442;11.126;2022-08-03T00:46:46;16.90;99.90
7600;DHT22;3841;49.442;11.126;2022-08-03T00:49:12;16.90;99.90
7600;DHT22;3841;49.442;11.126;2022-08-03T00:51:39;16.80;99.90
7600;DHT22;3841;49.442;11.126;2022-08-03T00:54:06;16.70;99.90
7600;DHT22;3841;49.442;11.126;2022-08-03T00:56:34;16.80;99.90
7600;DHT22;3841;49.442;11.126;2022-08-03T00:59:01;16.80;99.90
7600;DHT22;3841;49.442;11.126;2022-08-03T01:01:28;16.70;99.90
7600;DHT22;3841;49.442;11.126;2022-08-03T01:03:55;16.60;99.90
7600;DHT22;3841;49.442;11.126;2022-08-03T01:06:22;16.70;99.90
7600;DHT22;3841;49.442;11.126;2022-08-03T01:08:53;16.70;99.90
7600;DHT22;3841;49.442;11.126;2022-08-03T01:11:23;16.70;99.90
7600;DHT22;3841;49.442;11.126;2022-08-03T01:14:00;16.70;99.90
7600;DHT22;3841;49.442;11.126;2022-08-03T01:16:29;16.70;99.90
7600;DHT22;3841;49.442;11.126;2022-08-03T01:18:57;16.60;99.90
7600;DHT22;3841;49.442;11.126;2022-08-03T01:21:25;16.60;99.90
7600;DHT22;3841;49.442;11.126;2022-08-03T01:23:55;16.60;99.90
7600;DHT22;3841;49.442;11.126;2022-08-03T01:26:33;16.50;99.90
7600;DHT22;3841;49.442;11.126;2022-08-03T01:29:08;16.50;99.90
7600;DHT22;3841;49.442;11.126;2022-08-03T01:31:41;16.40;99.90
7600;DHT22;3841;49.442;11.126;2022-08-03T01:34:09;16.20;99.90
7600;DHT22;3841;49.442;11.126;2022-08-03T01:36:38;16.20;99.90
7600;DHT22;3841;49.442;11.126;2022-08-03T01:39:05;16.20;99.90
7600;DHT22;3841;49.442;11.126;2022-08-03T01:41:35;16.20;99.90
7600;DHT22;3841;49.442;11.126;2022-08-03T01:44:02;16.20;99.90
7600;DHT22;3841;49.442;11.126;2022-08-03T01:46:31;16.20;99.90
7600;DHT22;3841;49.442;11.126;2022-08-03T01:48:59;16.20;99.90
7600;DHT22;3841;49.442;11.126;2022-08-03T01:51:26;16.30;99.90
7600;DHT22;3841;49.442;11.126;2022-08-03T01:53:54;16.30;99.90
7600;DHT22;3841;49.442;11.126;2022-08-03T01:56:21;16.20;99.90
7600;DHT22;3841;49.442;11.126;2022-08-03T01:58:49;16.20;99.90
7600;DHT22;3841;49.442;11.126;2022-08-03T02:01:16;16.20;99.90
7600;DHT22;3841;49.442;11.126;2022-08-03T02:03:43;16.10;99.90
7600;DHT22;3841;49.442;11.126;2022-08-03T02:06:12;16.10;99.90
7600;DHT22;3841;49.442;11.126;2022-08-03T02:08:39;16.00;99.90
7600;DHT22;3841;49.442;11.126;2022-08-03T02:11:07;16.00;99.90
7600;DHT22;3841;49.442;11.126;2022-08-03T02:13:33;15.90;99.90
7600;DHT22;3841;49.442;11.126;2022-08-03T02:16:00;15.70;99.90
7600;DHT22;3841;49.442;11.126;2022-08-03T02:18:27;15.70;99.90
7600;DHT22;3841;49.442;11.126;2022-08-03T02:20:54;15.70;99.90
7600;DHT22;3841;49.442;11.126;2022-08-03T02:23:23;15.70;99.90
7600;DHT22;3841;49.442;11.126;2022-08-03T02:25:49;15.70;99.90
7600;DHT22;3841;49.442;11.126;2022-08-03T02:28:18;15.60;99.90
7600;DHT22;3841;49.442;11.126;2022-08-03T02:30:46;15.50;99.90
7600;DHT22;3841;49.442;11.126;2022-08-03T02:33:16;15.60;99.90
7600;DHT22;3841;49.442;11.126;2022-08-03T02:35:43;15.60;99.90
7600;DHT22;3841;49.442;11.126;2022-08-03T02:38:10;15.60;99.90
7600;DHT22;3841;49.442;11.126;2022-08-03T02:40:39;15.60;99.90
7600;DHT22;3841;49.442;11.126;2022-08-03T02:43:07;15.60;99.90
7600;DHT22;3841;49.442;11.126;2022-08-03T02:45:35;15.60;99.90
7600;DHT22;3841;49.442;11.126;2022-08-03T02:48:03;15.50;99.90
7600;DHT22;3841;49.442;11.126;2022-08-03T02:50:30;15.50;99.90
7600;DHT22;3841;49.442;11.126;2022-08-03T02:52:57;15.50;99.90
7600;DHT22;3841;49.442;11.126;2022-08-03T02:55:25;15.50;99.90
7600;DHT22;3841;49.442;11.126;2022-08-03T02:57:53;15.60;99.90
7600;DHT22;3841;49.442;11.126;2022-08-03T03:00:20;15.60;99.90
7600;DHT22;3841;49.442;11.126;2022-08-03T03:02:47;15.50;99.90
7600;DHT22;3841;49.442;11.126;2022-08-03T03:05:14;15.40;99.90
7600;DHT22;3841;49.442;11.126;2022-08-03T03:07:41;15.40;99.90
7600;DHT22;3841;49.442;11.126;2022-08-03T03:10:08;15.40;99.90
7600;DHT22;3841;49.442;11.126;2022-08-03T03:12:36;15.30;99.90
7600;DHT22;3841;49.442;11.126;2022-08-03T03:15:05;15.30;99.90
7600;DHT22;3841;49.442;11.126;2022-08-03T03:17:32;15.20;99.90
7600;DHT22;3841;49.442;11.126;2022-08-03T03:19:59;15.20;99.90
7600;DHT22;3841;49.442;11.126;2022-08-03T03:22:26;15.30;99.90
7600;DHT22;3841;49.442;11.126;2022-08-03T03:24:52;15.30;99.90
7600;DHT22;3841;49.442;11.126;2022-08-03T03:27:20;15.20;99.90
7600;DHT22;3841;49.442;11.126;2022-08-03T03:29:47;15.20;99.90
7600;DHT22;3841;49.442;11.126;2022-08-03T03:32:15;15.20;99.90
7600;DHT22;3841;49.442;11.126;2022-08-03T03:34:42;15.20;99.90
7600;DHT22;3841;49.442;11.126;2022-08-03T03:37:09;15.20;99.90
7600;DHT22;3841;49.442;11.126;2022-08-03T03:39:35;15.10;99.90
7600;DHT22;3841;49.442;11.126;2022-08-03T03:42:02;15.00;99.90
7600;DHT22;3841;49.442;11.126;2022-08-03T03:44:29;15.00;99.90
7600;DHT22;3841;49.442;11.126;2022-08-03T03:46:56;15.00;99.90
7600;DHT22;3841;49.442;11.126;2022-08-03T03:49:24;14.90;99.90
7600;DHT22;3841;49.442;11.126;2022-08-03T03:51:51;14.90;99.90
7600;DHT22;3841;49.442;11.126;2022-08-03T03:54:19;14.90;99.90
7600;DHT22;3841;49.442;11.126;2022-08-03T03:56:46;14.90;99.90
7600;DHT22;3841;49.442;11.126;2022-08-03T03:59:13;14.80;99.90
7600;DHT22;3841;49.442;11.126;2022-08-03T04:01:39;14.80;99.90
7600;DHT22;3841;49.442;11.126;2022-08-03T04:04:06;14.70;99.90
7600;DHT22;3841;49.442;11.126;2022-08-03T04:06:48;14.80;99.90
7600;DHT22;3841;49.442;11.126;2022-08-03T04:09:32;14.90;99.90
7600;DHT22;3841;49.442;11.126;2022-08-03T04:12:17;14.90;99.90
7600;DHT22;3841;49.442;11.126;2022-08-03T04:14:44;14.90;99.90
7600;DHT22;3841;49.442;11.126;2022-08-03T04:17:11;14.90;99.90
7600;DHT22;3841;49.442;11.126;2022-08-03T04:19:40;14.90;99.90
7600;DHT22;3841;49.442;11.126;2022-08-03T04:22:09;14.90;99.90
7600;DHT22;3841;49.442;11.126;2022-08-03T04:24:37;14.80;99.90
7600;DHT22;3841;49.442;11.126;2022-08-03T04:27:05;14.80;99.90
7600;DHT22;3841;49.442;11.126;2022-08-03T04:29:34;14.90;99.90
7600;DHT22;3841;49.442;11.126;2022-08-03T04:32:01;14.90;99.90
7600;DHT22;3841;49.442;11.126;2022-08-03T04:34:28;15.00;99.90
7600;DHT22;3841;49.442;11.126;2022-08-03T04:36:57;15.00;99.90
7600;DHT22;3841;49.442;11.126;2022-08-03T04:39:26;15.10;99.90
7600;DHT22;3841;49.442;11.126;2022-08-03T04:41:53;15.20;99.90
7600;DHT22;3841;49.442;11.126;2022-08-03T04:44:22;15.20;99.90
7600;DHT22;3841;49.442;11.126;2022-08-03T04:46:49;15.30;99.90
7600;DHT22;3841;49.442;11.126;2022-08-03T04:49:16;15.30;99.90
7600;DHT22;3841;49.442;11.126;2022-08-03T04:51:43;15.30;99.90
7600;DHT22;3841;49.442;11.126;2022-08-03T04:54:11;15.30;99.90
7600;DHT22;3841;49.442;11.126;2022-08-03T04:56:39;15.40;99.90
7600;DHT22;3841;49.442;11.126;2022-08-03T04:59:06;15.50;99.90
7600;DHT22;3841;49.442;11.126;2022-08-03T05:01:33;15.50;99.90
7600;DHT22;3841;49.442;11.126;2022-08-03T05:03:59;15.50;99.90
7600;DHT22;3841;49.442;11.126;2022-08-03T05:06:26;15.60;99.90
7600;DHT22;3841;49.442;11.126;2022-08-03T05:08:53;15.70;99.90
7600;DHT22;3841;49.442;11.126;2022-08-03T05:11:20;15.80;99.90
7600;DHT22;3841;49.442;11.126;2022-08-03T05:13:48;15.80;99.90
7600;DHT22;3841;49.442;11.126;2022-08-03T05:16:15;15.90;99.90
7600;DHT22;3841;49.442;11.126;2022-08-03T05:18:41;16.00;99.90
7600;DHT22;3841;49.442;11.126;2022-08-03T05:21:08;16.00;99.90
7600;DHT22;3841;49.442;11.126;2022-08-03T05:23:36;16.10;99.90
7600;DHT22;3841;49.442;11.126;2022-08-03T05:26:03;16.10;99.90
7600;DHT22;3841;49.442;11.126;2022-08-03T05:28:30;16.30;99.90
7600;DHT22;3841;49.442;11.126;2022-08-03T05:30:58;16.30;99.90
7600;DHT22;3841;49.442;11.126;2022-08-03T05:33:24;16.50;99.90
7600;DHT22;3841;49.442;11.126;2022-08-03T05:35:51;16.60;99.90
7600;DHT22;3841;49.442;11.126;2022-08-03T05:38:17;16.70;99.90
7600;DHT22;3841;49.442;11.126;2022-08-03T05:40:44;16.70;99.90
7600;DHT22;3841;49.442;11.126;2022-08-03T05:43:11;16.80;99.90
7600;DHT22;3841;49.442;11.126;2022-08-03T05:45:37;16.90;99.90
7600;DHT22;3841;49.442;11.126;2022-08-03T05:48:06;17.10;99.90
7600;DHT22;3841;49.442;11.126;2022-08-03T05:50:32;17.40;99.90
7600;DHT22;3841;49.442;11.126;2022-08-03T05:53:00;17.80;99.90
7600;DHT22;3841;49.442;11.126;2022-08-03T05:55:27;18.20;99.90
7600;DHT22;3841;49.442;11.126;2022-08-03T05:57:54;18.60;99.90
7600;DHT22;3841;49.442;11.126;2022-08-03T06:00:20;18.90;99.90
7600;DHT22;3841;49.442;11.126;2022-08-03T06:02:47;19.50;99.90
7600;DHT22;3841;49.442;11.126;2022-08-03T06:05:15;20.50;99.90
7600;DHT22;3841;49.442;11.126;2022-08-03T06:07:41;21.10;99.90
7600;DHT22;3841;49.442;11.126;2022-08-03T06:10:08;21.80;99.90
7600;DHT22;3841;49.442;11.126;2022-08-03T06:12:35;22.50;99.90
7600;DHT22;3841;49.442;11.126;2022-08-03T06:15:02;23.10;99.90
7600;DHT22;3841;49.442;11.126;2022-08-03T06:17:29;23.60;99.90
7600;DHT22;3841;49.442;11.126;2022-08-03T06:19:56;23.90;99.90
7600;DHT22;3841;49.442;11.126;2022-08-03T06:22:24;24.30;99.90
7600;DHT22;3841;49.442;11.126;2022-08-03T06:24:50;24.80;99.90
7600;DHT22;3841;49.442;11.126;2022-08-03T06:27:17;25.10;99.90
7600;DHT22;3841;49.442;11.126;2022-08-03T06:29:43;25.30;99.90
7600;DHT22;3841;49.442;11.126;2022-08-03T06:32:10;25.50;99.90
7600;DHT22;3841;49.442;11.126;2022-08-03T06:34:37;25.60;99.90
7600;DHT22;3841;49.442;11.126;2022-08-03T06:37:03;25.80;99.90
7600;DHT22;3841;49.442;11.126;2022-08-03T06:39:31;25.80;99.90
7600;DHT22;3841;49.442;11.126;2022-08-03T06:41:58;25.60;99.90
7600;DHT22;3841;49.442;11.126;2022-08-03T06:44:25;25.60;99.90
7600;DHT22;3841;49.442;11.126;2022-08-03T06:46:51;25.70;99.90
7600;DHT22;3841;49.442;11.126;2022-08-03T06:49:18;25.60;99.90
7600;DHT22;3841;49.442;11.126;2022-08-03T06:51:44;25.30;99.90
7600;DHT22;3841;49.442;11.126;2022-08-03T06:54:11;24.90;99.90
7600;DHT22;3841;49.442;11.126;2022-08-03T06:56:39;24.90;99.90
7600;DHT22;3841;49.442;11.126;2022-08-03T06:59:06;25.20;99.90
7600;DHT22;3841;49.442;11.126;2022-08-03T07:01:32;25.40;99.90
7600;DHT22;3841;49.442;11.126;2022-08-03T07:03:59;25.50;99.90
7600;DHT22;3841;49.442;11.126;2022-08-03T07:06:26;25.40;99.90
7600;DHT22;3841;49.442;11.126;2022-08-03T07:08:52;25.10;99.90
7600;DHT22;3841;49.442;11.126;2022-08-03T07:11:19;24.80;99.90
7600;DHT22;3841;49.442;11.126;2022-08-03T07:13:47;24.60;99.90
7600;DHT22;3841;49.442;11.126;2022-08-03T07:16:14;24.50;99.90
7600;DHT22;3841;49.442;11.126;2022-08-03T07:18:41;24.80;99.90
7600;DHT22;3841;49.442;11.126;2022-08-03T07:21:07;25.10;99.90
7600;DHT22;3841;49.442;11.126;2022-08-03T07:23:35;25.30;99.90
7600;DHT22;3841;49.442;11.126;2022-08-03T07:26:02;25.50;99.90
7600;DHT22;3841;49.442;11.126;2022-08-03T07:28:28;26.00;99.90
7600;DHT22;3841;49.442;11.126;2022-08-03T07:30:56;26.60;99.90
7600;DHT22;3841;49.442;11.126;2022-08-03T07:33:23;26.60;99.90
7600;DHT22;3841;49.442;11.126;2022-08-03T07:35:50;26.90;99.90
7600;DHT22;3841;49.442;11.126;2022-08-03T07:38:17;27.00;99.90
7600;DHT22;3841;49.442;11.126;2022-08-03T07:40:43;27.10;99.90
7600;DHT22;3841;49.442;11.126;2022-08-03T07:43:10;27.30;99.90
7600;DHT22;3841;49.442;11.126;2022-08-03T07:45:37;27.40;99.90
7600;DHT22;3841;49.442;11.126;2022-08-03T07:48:05;27.50;99.90
7600;DHT22;3841;49.442;11.126;2022-08-03T07:50:31;27.70;99.90
7600;DHT22;3841;49.442;11.126;2022-08-03T07:52:58;27.80;99.00
7600;DHT22;3841;49.442;11.126;2022-08-03T07:55:25;28.10;98.10
7600;DHT22;3841;49.442;11.126;2022-08-03T07:57:59;28.10;97.00
7600;DHT22;3841;49.442;11.126;2022-08-03T08:00:26;28.00;97.20
7600;DHT22;3841;49.442;11.126;2022-08-03T08:02:53;28.10;96.90
7600;DHT22;3841;49.442;11.126;2022-08-03T08:05:21;28.30;95.70
7600;DHT22;3841;49.442;11.126;2022-08-03T08:07:47;28.20;95.10
7600;DHT22;3841;49.442;11.126;2022-08-03T08:10:14;28.10;94.80
7600;DHT22;3841;49.442;11.126;2022-08-03T08:12:41;27.80;94.70
7600;DHT22;3841;49.442;11.126;2022-08-03T08:15:08;27.60;95.10
7600;DHT22;3841;49.442;11.126;2022-08-03T08:17:41;27.30;95.30
7600;DHT22;3841;49.442;11.126;2022-08-03T08:20:09;27.00;95.60
7600;DHT22;3841;49.442;11.126;2022-08-03T08:22:39;26.90;96.50
7600;DHT22;3841;49.442;11.126;2022-08-03T08:25:06;26.70;97.20
7600;DHT22;3841;49.442;11.126;2022-08-03T08:27:33;26.50;97.20
7600;DHT22;3841;49.442;11.126;2022-08-03T08:30:03;26.30;97.20
7600;DHT22;3841;49.442;11.126;2022-08-03T08:32:29;26.20;97.30
7600;DHT22;3841;49.442;11.126;2022-08-03T08:34:56;26.30;96.90
7600;DHT22;3841;49.442;11.126;2022-08-03T08:37:23;26.40;97.00
7600;DHT22;3841;49.442;11.126;2022-08-03T08:39:50;26.40;96.70
7600;DHT22;3841;49.442;11.126;2022-08-03T08:42:17;26.30;96.90
7600;DHT22;3841;49.442;11.126;2022-08-03T08:44:44;26.30;97.70
7600;DHT22;3841;49.442;11.126;2022-08-03T08:47:10;26.20;97.40
7600;DHT22;3841;49.442;11.126;2022-08-03T08:49:37;26.20;97.70
7600;DHT22;3841;49.442;11.126;2022-08-03T08:52:05;26.20;97.70
7600;DHT22;3841;49.442;11.126;2022-08-03T08:54:34;26.20;98.00
7600;DHT22;3841;49.442;11.126;2022-08-03T08:57:07;26.30;97.00
7600;DHT22;3841;49.442;11.126;2022-08-03T08:59:38;26.50;96.30
7600;DHT22;3841;49.442;11.126;2022-08-03T09:02:06;26.50;96.40
7600;DHT22;3841;49.442;11.126;2022-08-03T09:04:33;26.70;94.60
7600;DHT22;3841;49.442;11.126;2022-08-03T09:07:00;26.70;95.00
7600;DHT22;3841;49.442;11.126;2022-08-03T09:09:28;26.80;94.60
7600;DHT22;3841;49.442;11.126;2022-08-03T09:11:54;26.90;93.60
7600;DHT22;3841;49.442;11.126;2022-08-03T09:14:22;26.90;93.70
7600;DHT22;3841;49.442;11.126;2022-08-03T09:16:55;26.90;93.00
7600;DHT22;3841;49.442;11.126;2022-08-03T09:19:25;26.90;92.80
7600;DHT22;3841;49.442;11.126;2022-08-03T09:22:05;27.00;92.30
7600;DHT22;3841;49.442;11.126;2022-08-03T09:24:32;27.10;90.60
7600;DHT22;3841;49.442;11.126;2022-08-03T09:26:59;27.10;91.00
7600;DHT22;3841;49.442;11.126;2022-08-03T09:29:27;27.30;89.70
7600;DHT22;3841;49.442;11.126;2022-08-03T09:31:58;27.50;88.80
7600;DHT22;3841;49.442;11.126;2022-08-03T09:34:25;27.80;89.60
7600;DHT22;3841;49.442;11.126;2022-08-03T09:36:52;27.90;90.20
7600;DHT22;3841;49.442;11.126;2022-08-03T09:39:22;27.90;90.60
7600;DHT22;3841;49.442;11.126;2022-08-03T09:42:03;27.90;89.60
7600;DHT22;3841;49.442;11.126;2022-08-03T09:44:33;27.90;89.40
7600;DHT22;3841;49.442;11.126;2022-08-03T09:47:01;28.00;89.30
7600;DHT22;3841;49.442;11.126;2022-08-03T09:49:27;28.00;89.40
7600;DHT22;3841;49.442;11.126;2022-08-03T09:51:54;28.10;85.50
7600;DHT22;3841;49.442;11.126;2022-08-03T09:54:27;28.50;84.20
7600;DHT22;3841;49.442;11.126;2022-08-03T09:56:54;28.50;84.40
7600;DHT22;3841;49.442;11.126;2022-08-03T09:59:24;28.50;85.90
7600;DHT22;3841;49.442;11.126;2022-08-03T10:01:53;28.50;85.70
7600;DHT22;3841;49.442;11.126;2022-08-03T10:04:19;28.40;85.00
7600;DHT22;3841;49.442;11.126;2022-08-03T10:07:00;28.50;84.50
7600;DHT22;3841;49.442;11.126;2022-08-03T10:09:27;28.50;84.40
7600;DHT22;3841;49.442;11.126;2022-08-03T10:11:54;28.60;83.40
7600;DHT22;3841;49.442;11.126;2022-08-03T10:14:21;28.70;82.50
7600;DHT22;3841;49.442;11.126;2022-08-03T10:16:50;28.80;83.60
7600;DHT22;3841;49.442;11.126;2022-08-03T10:19:17;28.80;82.50
7600;DHT22;3841;49.442;11.126;2022-08-03T10:21:45;28.80;82.20
7600;DHT22;3841;49.442;11.126;2022-08-03T10:24:13;29.00;82.00
7600;DHT22;3841;49.442;11.126;2022-08-03T10:26:41;29.10;79.50
7600;DHT22;3841;49.442;11.126;2022-08-03T10:29:11;29.30;77.70
7600;DHT22;3841;49.442;11.126;2022-08-03T10:31:38;29.40;76.90
7600;DHT22;3841;49.442;11.126;2022-08-03T10:34:07;29.50;76.20
7600;DHT22;3841;49.442;11.126;2022-08-03T10:36:35;29.50;77.10
7600;DHT22;3841;49.442;11.126;2022-08-03T10:39:03;29.50;77.30
7600;DHT22;3841;49.442;11.126;2022-08-03T10:41:31;29.50;75.70
7600;DHT22;3841;49.442;11.126;2022-08-03T10:44:02;29.40;74.80
7600;DHT22;3841;49.442;11.126;2022-08-03T10:46:29;29.70;74.60
7600;DHT22;3841;49.442;11.126;2022-08-03T10:48:58;29.70;73.00
7600;DHT22;3841;49.442;11.126;2022-08-03T10:51:25;29.90;71.80
7600;DHT22;3841;49.442;11.126;2022-08-03T10:53:57;29.90;71.90
7600;DHT22;3841;49.442;11.126;2022-08-03T10:56:36;29.80;71.70
7600;DHT22;3841;49.442;11.126;2022-08-03T11:02:03;29.90;71.00
7600;DHT22;3841;49.442;11.126;2022-08-03T11:04:32;29.90;70.20
7600;DHT22;3841;49.442;11.126;2022-08-03T11:07:18;30.00;68.60
7600;DHT22;3841;49.442;11.126;2022-08-03T11:09:47;30.10;69.00
7600;DHT22;3841;49.442;11.126;2022-08-03T11:12:20;30.10;67.00
7600;DHT22;3841;49.442;11.126;2022-08-03T11:14:47;30.10;65.90
7600;DHT22;3841;49.442;11.126;2022-08-03T11:17:14;30.10;66.00
7600;DHT22;3841;49.442;11.126;2022-08-03T11:19:44;30.10;66.10
7600;DHT22;3841;49.442;11.126;2022-08-03T11:22:11;30.30;63.30
7600;DHT22;3841;49.442;11.126;2022-08-03T11:27:25;30.50;61.40
7600;DHT22;3841;49.442;11.126;2022-08-03T11:29:53;30.50;60.90
7600;DHT22;3841;49.442;11.126;2022-08-03T11:35:08;30.70;60.20
7600;DHT22;3841;49.442;11.126;2022-08-03T11:37:35;30.50;60.60
7600;DHT22;3841;49.442;11.126;2022-08-03T11:40:02;30.60;60.40
7600;DHT22;3841;49.442;11.126;2022-08-03T11:42:43;30.70;61.50
7600;DHT22;3841;49.442;11.126;2022-08-03T11:45:12;30.70;62.50
7600;DHT22;3841;49.442;11.126;2022-08-03T11:47:39;30.70;61.40
7600;DHT22;3841;49.442;11.126;2022-08-03T11:50:07;30.80;61.40
7600;DHT22;3841;49.442;11.126;2022-08-03T11:52:36;30.90;61.20
7600;DHT22;3841;49.442;11.126;2022-08-03T11:55:07;30.90;61.50
7600;DHT22;3841;49.442;11.126;2022-08-03T11:57:34;30.90;60.90
7600;DHT22;3841;49.442;11.126;2022-08-03T12:00:02;31.00;59.90
7600;DHT22;3841;49.442;11.126;2022-08-03T12:02:29;31.00;60.20
7600;DHT22;3841;49.442;11.126;2022-08-03T12:04:56;31.00;59.30
7600;DHT22;3841;49.442;11.126;2022-08-03T12:07:25;31.00;59.20
7600;DHT22;3841;49.442;11.126;2022-08-03T12:10:05;31.00;58.90
7600;DHT22;3841;49.442;11.126;2022-08-03T12:12:32;31.10;58.50
7600;DHT22;3841;49.442;11.126;2022-08-03T12:14:58;31.30;57.50
7600;DHT22;3841;49.442;11.126;2022-08-03T12:17:33;31.50;56.20
7600;DHT22;3841;49.442;11.126;2022-08-03T12:19:59;31.40;57.30
7600;DHT22;3841;49.442;11.126;2022-08-03T12:22:29;31.30;58.30
7600;DHT22;3841;49.442;11.126;2022-08-03T12:24:57;31.20;57.70
7600;DHT22;3841;49.442;11.126;2022-08-03T12:27:24;31.20;57.60
7600;DHT22;3841;49.442;11.126;2022-08-03T12:29:54;31.20;57.60
7600;DHT22;3841;49.442;11.126;2022-08-03T12:32:21;31.10;58.30
7600;DHT22;3841;49.442;11.126;2022-08-03T12:34:49;31.10;58.40
7600;DHT22;3841;49.442;11.126;2022-08-03T12:37:17;31.10;58.50
7600;DHT22;3841;49.442;11.126;2022-08-03T12:39:47;31.30;58.00
7600;DHT22;3841;49.442;11.126;2022-08-03T12:42:14;31.50;57.50
7600;DHT22;3841;49.442;11.126;2022-08-03T12:44:41;31.70;57.50
7600;DHT22;3841;49.442;11.126;2022-08-03T12:47:07;31.80;57.20
7600;DHT22;3841;49.442;11.126;2022-08-03T12:49:43;31.80;56.90
7600;DHT22;3841;49.442;11.126;2022-08-03T12:52:11;31.80;56.80
7600;DHT22;3841;49.442;11.126;2022-08-03T12:54:38;31.20;57.20
7600;DHT22;3841;49.442;11.126;2022-08-03T12:57:05;30.90;57.60
7600;DHT22;3841;49.442;11.126;2022-08-03T12:59:33;30.80;58.10
7600;DHT22;3841;49.442;11.126;2022-08-03T13:02:00;30.70;58.80
7600;DHT22;3841;49.442;11.126;2022-08-03T13:04:27;30.80;59.30
7600;DHT22;3841;49.442;11.126;2022-08-03T13:06:57;30.90;58.80
7600;DHT22;3841;49.442;11.126;2022-08-03T13:09:26;31.10;58.80
7600;DHT22;3841;49.442;11.126;2022-08-03T13:12:07;31.10;58.90
7600;DHT22;3841;49.442;11.126;2022-08-03T13:14:33;31.00;66.60
7600;DHT22;3841;49.442;11.126;2022-08-03T13:17:00;30.70;67.50
7600;DHT22;3841;49.442;11.126;2022-08-03T13:19:27;30.30;68.70
7600;DHT22;3841;49.442;11.126;2022-08-03T13:21:53;29.80;70.60
7600;DHT22;3841;49.442;11.126;2022-08-03T13:24:20;29.40;66.70
7600;DHT22;3841;49.442;11.126;2022-08-03T13:26:49;29.40;63.60
7600;DHT22;3841;49.442;11.126;2022-08-03T13:29:16;29.70;61.50
7600;DHT22;3841;49.442;11.126;2022-08-03T13:31:42;29.90;61.00
7600;DHT22;3841;49.442;11.126;2022-08-03T13:34:09;30.20;59.80
7600;DHT22;3841;49.442;11.126;2022-08-03T13:36:36;30.40;59.50
7600;DHT22;3841;49.442;11.126;2022-08-03T13:39:03;30.70;58.40
7600;DHT22;3841;49.442;11.126;2022-08-03T13:41:29;30.90;58.20
7600;DHT22;3841;49.442;11.126;2022-08-03T13:43:57;31.00;58.10
7600;DHT22;3841;49.442;11.126;2022-08-03T13:46:24;31.10;57.00
7600;DHT22;3841;49.442;11.126;2022-08-03T13:48:52;31.20;56.90
7600;DHT22;3841;49.442;11.126;2022-08-03T13:51:18;31.40;56.90
7600;DHT22;3841;49.442;11.126;2022-08-03T13:53:45;31.50;56.20
7600;DHT22;3841;49.442;11.126;2022-08-03T13:56:11;31.60;56.30
7600;DHT22;3841;49.442;11.126;2022-08-03T13:58:38;31.80;55.50
7600;DHT22;3841;49.442;11.126;2022-08-03T14:01:06;31.70;55.60
7600;DHT22;3841;49.442;11.126;2022-08-03T14:03:33;31.90;55.00
7600;DHT22;3841;49.442;11.126;2022-08-03T14:05:59;31.90;55.10
7600;DHT22;3841;49.442;11.126;2022-08-03T14:08:26;31.80;55.50
7600;DHT22;3841;49.442;11.126;2022-08-03T14:10:52;31.70;55.30
7600;DHT22;3841;49.442;11.126;2022-08-03T14:13:19;31.70;54.70
7600;DHT22;3841;49.442;11.126;2022-08-03T14:15:46;31.80;54.80
7600;DHT22;3841;49.442;11.126;2022-08-03T14:18:14;31.80;54.40
7600;DHT22;3841;49.442;11.126;2022-08-03T14:20:41;31.70;54.90
7600;DHT22;3841;49.442;11.126;2022-08-03T14:23:08;31.80;54.00
7600;DHT22;3841;49.442;11.126;2022-08-03T14:25:38;32.00;54.40
7600;DHT22;3841;49.442;11.126;2022-08-03T14:28:06;31.90;54.20
7600;DHT22;3841;49.442;11.126;2022-08-03T14:30:33;31.90;53.90
7600;DHT22;3841;49.442;11.126;2022-08-03T14:33:00;32.00;53.80
7600;DHT22;3841;49.442;11.126;2022-08-03T14:35:30;32.00;53.90
7600;DHT22;3841;49.442;11.126;2022-08-03T14:37:56;32.20;53.10
7600;DHT22;3841;49.442;11.126;2022-08-03T14:40:23;32.10;53.40
7600;DHT22;3841;49.442;11.126;2022-08-03T14:42:50;32.20;53.00
7600;DHT22;3841;49.442;11.126;2022-08-03T14:45:16;32.20;53.10
7600;DHT22;3841;49.442;11.126;2022-08-03T14:47:43;32.10;53.10
7600;DHT22;3841;49.442;11.126;2022-08-03T14:50:10;32.00;53.60
7600;DHT22;3841;49.442;11.126;2022-08-03T14:52:38;32.30;53.40
7600;DHT22;3841;49.442;11.126;2022-08-03T14:55:05;32.10;53.40
7600;DHT22;3841;49.442;11.126;2022-08-03T14:57:31;32.10;53.10
7600;DHT22;3841;49.442;11.126;2022-08-03T14:59:58;32.00;52.90
7600;DHT22;3841;49.442;11.126;2022-08-03T15:02:25;32.10;53.00
7600;DHT22;3841;49.442;11.126;2022-08-03T15:04:52;32.10;52.80
7600;DHT22;3841;49.442;11.126;2022-08-03T15:07:19;32.10;52.70
7600;DHT22;3841;49.442;11.126;2022-08-03T15:09:47;32.20;52.80
7600;DHT22;3841;49.442;11.126;2022-08-03T15:12:13;32.30;52.40
7600;DHT22;3841;49.442;11.126;2022-08-03T15:14:40;32.20;52.30
7600;DHT22;3841;49.442;11.126;2022-08-03T15:17:07;32.10;52.70
7600;DHT22;3841;49.442;11.126;2022-08-03T15:19:33;32.00;52.90
7600;DHT22;3841;49.442;11.126;2022-08-03T15:22:01;31.80;52.70
7600;DHT22;3841;49.442;11.126;2022-08-03T15:24:28;31.60;53.00
7600;DHT22;3841;49.442;11.126;2022-08-03T15:26:56;31.60;52.60
7600;DHT22;3841;49.442;11.126;2022-08-03T15:29:22;31.50;52.60
7600;DHT22;3841;49.442;11.126;2022-08-03T15:31:49;31.40;52.70
7600;DHT22;3841;49.442;11.126;2022-08-03T15:34:16;31.40;53.30
7600;DHT22;3841;49.442;11.126;2022-08-03T15:36:44;31.30;53.20
7600;DHT22;3841;49.442;11.126;2022-08-03T15:39:11;31.30;52.90
7600;DHT22;3841;49.442;11.126;2022-08-03T15:41:38;31.30;53.00
7600;DHT22;3841;49.442;11.126;2022-08-03T15:44:06;31.60;52.30
7600;DHT22;3841;49.442;11.126;2022-08-03T15:46:32;31.90;51.10
7600;DHT22;3841;49.442;11.126;2022-08-03T15:48:59;32.00;51.30
7600;DHT22;3841;49.442;11.126;2022-08-03T15:51:26;31.90;52.10
7600;DHT22;3841;49.442;11.126;2022-08-03T15:53:52;31.80;51.40
7600;DHT22;3841;49.442;11.126;2022-08-03T15:56:20;31.60;52.00